Time;durP1;ratioP1;P1;durP2;ratioP2;P2;SDS_P1;SDS_P2;PMS_P1;PMS_P2;Temp;Humidity;BMP_temperature;BMP_pressure;BME280_temperature;BME280_humidity;BME280_pressure;Samples;Min_cycle;Max_cycle;Signal;HPM_P1;HPM_P2
2021/08/28 00:01:56;;;;;;;0.90;0.90;;;;;;;14.70;100.00;100928.88;5075058;28;20445;-73
2021/08/28 00:04:22;;;;;;;0.70;0.70;;;;;;;14.71;100.00;100930.50;5075141;28;20441;-72
2021/08/28 00:06:49;;;;;;;0.70;0.67;;;;;;;14.73;100.00;100928.22;5074955;28;20469;-73
2021/08/28 00:09:17;;;;;;;2.10;0.77;;;;;;;14.74;100.00;100934.47;5074611;28;20449;-72
2021/08/28 00:11:43;;;;;;;1.03;0.73;;;;;;;14.72;100.00;100932.09;5074743;28;20488;-71
2021/08/28 00:14:09;;;;;;;0.80;0.70;;;;;;;14.68;100.00;100933.03;5074701;28;20449;-72
2021/08/28 00:16:36;;;;;;;1.17;0.90;;;;;;;14.61;100.00;100928.88;5073077;28;20453;-74
2021/08/28 00:19:02;;;;;;;0.80;0.60;;;;;;;14.60;100.00;100937.38;5074248;28;20465;-72
2021/08/28 00:21:29;;;;;;;0.70;0.70;;;;;;;14.57;100.00;100936.09;5074651;28;20445;-71
2021/08/28 00:23:55;;;;;;;1.23;1.13;;;;;;;14.60;100.00;100937.38;5073438;28;20449;-70
2021/08/28 00:26:23;;;;;;;1.10;0.80;;;;;;;14.58;100.00;100934.16;5074541;28;20490;-72
2021/08/28 00:28:50;;;;;;;0.50;0.50;;;;;;;14.62;100.00;100935.94;5074529;28;20456;-72
2021/08/28 00:31:16;;;;;;;1.60;1.13;;;;;;;14.60;100.00;100931.91;5074402;28;20485;-70
2021/08/28 00:33:42;;;;;;;0.67;0.60;;;;;;;14.60;100.00;100926.47;5073532;28;20452;-72
2021/08/28 00:36:09;;;;;;;1.57;0.70;;;;;;;14.61;100.00;100923.44;5074466;28;20437;-70
2021/08/28 00:38:35;;;;;;;1.67;1.07;;;;;;;14.58;100.00;100920.53;5074232;28;20466;-70
2021/08/28 00:41:02;;;;;;;0.90;0.90;;;;;;;14.57;100.00;100929.84;5074079;28;20441;-72
2021/08/28 00:43:30;;;;;;;1.00;0.90;;;;;;;14.54;100.00;100928.53;5072926;28;20973;-72
2021/08/28 00:45:58;;;;;;;0.73;0.73;;;;;;;14.54;100.00;100930.47;5074160;28;20452;-71
2021/08/28 00:48:24;;;;;;;0.80;0.70;;;;;;;14.51;100.00;100922.91;5074031;28;20468;-70
2021/08/28 00:50:51;;;;;;;0.97;0.53;;;;;;;14.46;100.00;100926.56;5073942;28;20486;-71
2021/08/28 00:53:18;;;;;;;0.80;0.80;;;;;;;14.42;100.00;100927.53;5073189;28;20449;-73
2021/08/28 00:55:47;;;;;;;0.80;0.60;;;;;;;14.39;100.00;100929.78;5073610;28;20957;-73
2021/08/28 00:58:13;;;;;;;0.80;0.60;;;;;;;14.37;100.00;100929.28;5073848;28;20469;-72
2021/08/28 01:00:45;;;;;;;0.90;0.70;;;;;;;14.38;100.00;100930.88;5074041;28;20441;-71
2021/08/28 01:03:12;;;;;;;0.80;0.80;;;;;;;14.35;100.00;100928.00;5073120;28;20429;-73
2021/08/28 01:05:52;;;;;;;2.10;1.90;;;;;;;14.41;100.00;100923.22;5073313;28;20456;-71
2021/08/28 01:08:24;;;;;;;0.90;0.77;;;;;;;14.43;100.00;100929.13;5073736;28;20461;-73
2021/08/28 01:10:56;;;;;;;1.33;0.70;;;;;;;14.41;100.00;100925.94;5073621;28;20476;-73
2021/08/28 01:13:23;;;;;;;0.70;0.70;;;;;;;14.40;100.00;100930.59;5072575;28;21141;-73
2021/08/28 01:15:53;;;;;;;1.47;0.97;;;;;;;14.43;100.00;100931.84;5073597;28;20453;-73
2021/08/28 01:18:22;;;;;;;0.90;0.83;;;;;;;14.37;100.00;100929.28;5073222;28;21035;-71
2021/08/28 01:20:58;;;;;;;1.03;0.87;;;;;;;14.43;100.00;100931.84;5073562;28;20437;-73
2021/08/28 01:23:26;;;;;;;1.30;1.10;;;;;;;14.37;100.00;100937.47;5072443;28;20464;-74
2021/08/28 01:25:54;;;;;;;1.67;1.30;;;;;;;14.38;100.00;100941.78;5073431;28;20449;-72
2021/08/28 01:28:22;;;;;;;1.83;0.93;;;;;;;14.46;100.00;100933.94;5073154;28;20978;-72
2021/08/28 01:30:51;;;;;;;1.13;0.83;;;;;;;14.44;100.00;100938.94;5073296;28;20488;-74
2021/08/28 01:33:21;;;;;;;2.70;0.97;;;;;;;14.42;100.00;100946.59;5072694;28;20445;-74
2021/08/28 01:35:48;;;;;;;0.70;0.50;;;;;;;14.45;100.00;100945.97;5073334;28;20441;-73
2021/08/28 01:38:15;;;;;;;1.53;0.87;;;;;;;14.42;100.00;100941.97;5073016;28;20982;-72
2021/08/28 01:40:42;;;;;;;1.20;0.83;;;;;;;14.43;100.00;100942.75;5073052;28;20441;-74
2021/08/28 01:43:09;;;;;;;1.87;1.67;;;;;;;14.38;100.00;100947.22;5072727;28;20445;-73
2021/08/28 01:45:36;;;;;;;1.47;1.10;;;;;;;14.37;100.00;100937.47;5073114;28;20439;-73
2021/08/28 01:48:05;;;;;;;1.83;1.40;;;;;;;14.38;100.00;100943.72;5073132;28;20472;-73
2021/08/28 01:50:32;;;;;;;1.43;1.33;;;;;;;14.33;100.00;100941.13;5072858;28;21005;-73
2021/08/28 01:52:59;;;;;;;1.37;1.17;;;;;;;14.30;100.00;100948.03;5072679;28;20437;-73
2021/08/28 01:55:25;;;;;;;1.53;1.27;;;;;;;14.26;100.00;100949.78;5072418;28;20446;-71
2021/08/28 01:57:52;;;;;;;1.10;1.00;;;;;;;14.28;100.00;100953.00;5073087;28;20461;-73
2021/08/28 02:00:18;;;;;;;1.33;1.23;;;;;;;14.25;100.00;100948.16;5073111;28;20437;-71
2021/08/28 02:02:45;;;;;;;1.47;1.27;;;;;;;14.27;100.00;100947.88;5072420;28;20950;-73
2021/08/28 02:05:13;;;;;;;1.40;1.30;;;;;;;14.27;100.00;100939.69;5071912;28;20452;-73
2021/08/28 02:07:48;;;;;;;1.27;1.00;;;;;;;14.30;100.00;100953.50;5071483;28;20503;-73
2021/08/28 02:10:21;;;;;;;1.50;1.33;;;;;;;14.30;100.00;100952.69;5073118;28;20421;-72
2021/08/28 02:12:54;;;;;;;1.57;1.40;;;;;;;14.25;100.00;100953.63;5072618;28;20426;-70
2021/08/28 02:15:25;;;;;;;1.60;1.07;;;;;;;14.26;100.00;100949.78;5072942;28;20472;-71
2021/08/28 02:17:58;;;;;;;1.40;1.30;;;;;;;14.29;100.00;100956.50;5072857;28;20469;-74
2021/08/28 02:20:30;;;;;;;1.40;1.23;;;;;;;14.32;100.00;100948.50;5072996;28;20475;-73
2021/08/28 02:23:01;;;;;;;1.73;0.90;;;;;;;14.32;100.00;100950.44;5072266;28;20461;-74
2021/08/28 02:25:32;;;;;;;1.90;1.20;;;;;;;14.32;100.00;100950.44;5072770;28;20435;-73
2021/08/28 02:28:03;;;;;;;1.23;1.10;;;;;;;14.22;100.00;100948.03;5072916;28;20477;-74
2021/08/28 02:30:34;;;;;;;1.63;1.53;;;;;;;14.24;100.00;100946.56;5072774;28;20469;-73
2021/08/28 02:33:04;;;;;;;1.20;1.10;;;;;;;14.26;100.00;100947.06;5072204;28;20440;-74
2021/08/28 02:35:33;;;;;;;0.83;0.83;;;;;;;14.25;100.00;100940.00;5072639;28;20429;-72
2021/08/28 02:38:01;;;;;;;3.80;1.27;;;;;;;14.28;100.00;100946.75;5072374;28;20489;-74
2021/08/28 02:40:28;;;;;;;1.83;1.30;;;;;;;14.26;100.00;100949.78;5072465;28;20840;-73
2021/08/28 02:42:56;;;;;;;1.03;0.90;;;;;;;14.29;100.00;100942.88;5072098;28;20437;-74
2021/08/28 02:45:26;;;;;;;1.20;1.10;;;;;;;14.29;100.00;100943.69;5072523;28;20484;-73
2021/08/28 02:47:53;;;;;;;1.00;0.90;;;;;;;14.24;100.00;100952.03;5072640;28;20465;-73
2021/08/28 02:50:21;;;;;;;1.30;1.10;;;;;;;14.29;100.00;100948.34;5072173;28;20452;-74
2021/08/28 02:52:51;;;;;;;1.67;1.43;;;;;;;14.33;100.00;100955.56;5072251;28;20452;-72
2021/08/28 02:55:19;;;;;;;2.03;1.17;;;;;;;14.33;100.00;100954.75;5072223;28;20445;-74
2021/08/28 02:57:49;;;;;;;1.70;1.50;;;;;;;14.31;100.00;100954.28;5072385;28;20544;-74
2021/08/28 03:00:18;;;;;;;1.67;1.50;;;;;;;14.29;100.00;100949.13;5072680;28;20445;-73
2021/08/28 03:02:45;;;;;;;1.97;1.77;;;;;;;14.21;100.00;100958.13;5072259;28;20441;-71
2021/08/28 03:05:13;;;;;;;1.03;0.93;;;;;;;14.20;100.00;100956.50;5072048;28;20441;-73
2021/08/28 03:07:41;;;;;;;1.57;1.03;;;;;;;14.17;100.00;100959.06;5072798;28;20504;-73
2021/08/28 03:10:10;;;;;;;2.03;1.20;;;;;;;14.15;100.00;100959.38;5076136;28;20445;-73
2021/08/28 03:12:37;;;;;;;1.30;1.20;;;;;;;14.19;100.00;100949.44;5075842;28;20493;-74
2021/08/28 03:15:05;;;;;;;2.70;1.00;;;;;;;14.24;100.00;100959.38;5074952;28;20957;-75
2021/08/28 03:17:32;;;;;;;1.43;1.13;;;;;;;14.26;100.00;100957.97;5075939;28;20457;-73
2021/08/28 03:19:59;;;;;;;1.27;1.17;;;;;;;14.27;100.00;100958.78;5075677;28;20430;-74
2021/08/28 03:22:26;;;;;;;1.53;1.17;;;;;;;14.21;100.00;100958.13;5075725;28;20491;-75
2021/08/28 03:24:55;;;;;;;1.50;1.00;;;;;;;14.24;100.00;100960.19;5074764;28;20910;-74
2021/08/28 03:27:24;;;;;;;3.27;1.87;;;;;;;14.30;100.00;100967.13;5075687;28;20465;-73
2021/08/28 03:29:52;;;;;;;1.80;1.43;;;;;;;14.34;100.00;100968.09;5075725;28;20449;-73
2021/08/28 03:32:20;;;;;;;1.73;1.23;;;;;;;14.36;100.00;100965.84;5075632;28;20844;-75
2021/08/28 03:34:47;;;;;;;2.13;1.77;;;;;;;14.41;100.00;100969.53;5074818;28;20469;-75
2021/08/28 03:37:14;;;;;;;2.40;1.77;;;;;;;14.28;100.00;100969.34;5075554;28;20464;-73
2021/08/28 03:39:42;;;;;;;2.67;1.63;;;;;;;14.27;100.00;100970.47;5075245;28;20939;-73
2021/08/28 03:42:09;;;;;;;1.60;1.30;;;;;;;14.34;100.00;100978.16;5075571;28;20445;-73
2021/08/28 03:44:39;;;;;;;3.73;2.43;;;;;;;14.35;100.00;100968.91;5074637;28;20452;-74
2021/08/28 03:47:06;;;;;;;3.20;2.07;;;;;;;14.38;100.00;100962.78;5075403;28;20461;-74
2021/08/28 03:49:33;;;;;;;2.93;1.77;;;;;;;14.42;100.00;100973.88;5075423;28;20460;-74
2021/08/28 03:52:00;;;;;;;2.63;1.90;;;;;;;14.43;100.00;100972.75;5075181;28;20512;-73
2021/08/28 03:54:26;;;;;;;3.30;2.53;;;;;;;14.43;100.00;100970.00;5074446;28;20449;-74
2021/08/28 03:56:53;;;;;;;2.77;1.87;;;;;;;14.37;100.00;100969.38;5075170;28;20504;-74
2021/08/28 03:59:19;;;;;;;2.87;1.30;;;;;;;14.36;100.00;100978.66;5075147;28;20441;-74
2021/08/28 04:01:48;;;;;;;3.63;2.10;;;;;;;14.29;100.00;100978.31;5075166;28;20469;-75
2021/08/28 04:04:14;;;;;;;5.67;2.90;;;;;;;14.22;100.00;100975.28;5074289;28;20445;-74
2021/08/28 04:06:41;;;;;;;2.73;2.10;;;;;;;14.20;100.00;100972.03;5074949;28;20507;-74
2021/08/28 04:09:07;;;;;;;1.73;1.57;;;;;;;14.18;100.00;100975.09;5074900;28;20460;-69
2021/08/28 04:11:34;;;;;;;2.50;2.30;;;;;;;14.11;100.00;100980.97;5074695;28;20547;-68
2021/08/28 04:14:00;;;;;;;2.73;2.10;;;;;;;14.16;100.00;100980.03;5073708;28;20933;-72
2021/08/28 04:16:27;;;;;;;3.60;2.10;;;;;;;14.11;100.00;100978.25;5074305;28;20938;-72
2021/08/28 04:18:55;;;;;;;1.90;1.60;;;;;;;14.09;100.00;100976.97;5075291;28;20798;-72
2021/08/28 04:21:21;;;;;;;2.80;2.00;;;;;;;14.08;100.00;100981.63;5074656;28;20438;-70
2021/08/28 04:23:47;;;;;;;2.97;2.13;;;;;;;14.12;100.00;100977.16;5073437;28;20464;-72
2021/08/28 04:26:14;;;;;;;5.07;2.47;;;;;;;14.08;100.00;100978.09;5074573;28;20449;-71
2021/08/28 04:28:40;;;;;;;4.13;2.63;;;;;;;14.07;100.00;100984.66;5074058;28;20466;-72
2021/08/28 04:31:07;;;;;;;3.87;2.20;;;;;;;14.08;100.00;100975.38;5073624;28;20855;-70
2021/08/28 04:33:33;;;;;;;4.87;3.80;;;;;;;14.11;100.00;100980.19;5074432;28;20456;-70
2021/08/28 04:36:01;;;;;;;4.57;2.20;;;;;;;14.15;100.00;100986.59;5073526;28;20453;-70
2021/08/28 04:38:27;;;;;;;2.80;2.17;;;;;;;14.17;100.00;100983.59;5073939;28;20993;-71
2021/08/28 04:40:54;;;;;;;2.70;1.97;;;;;;;14.16;100.00;100981.97;5074304;28;20446;-72
2021/08/28 04:43:20;;;;;;;5.80;3.03;;;;;;;14.12;100.00;100987.22;5073266;28;20445;-72
2021/08/28 04:45:47;;;;;;;3.93;2.10;;;;;;;14.10;100.00;100984.81;5074178;28;20814;-72
2021/08/28 04:48:13;;;;;;;3.90;1.97;;;;;;;14.11;100.00;100983.69;5074029;28;20468;-71
2021/08/28 04:50:40;;;;;;;3.60;2.47;;;;;;;14.08;100.00;100997.97;5074061;28;20446;-71
2021/08/28 04:53:08;;;;;;;3.07;1.83;;;;;;;14.12;100.00;100995.41;5073294;28;20485;-72
2021/08/28 04:55:34;;;;;;;3.10;2.30;;;;;;;14.14;100.00;101004.06;5073846;28;20464;-71
2021/08/28 04:58:00;;;;;;;3.07;2.13;;;;;;;14.14;100.00;101004.06;5073553;28;20997;-71
2021/08/28 05:00:28;;;;;;;2.60;2.30;;;;;;;14.19;100.00;101006.66;5073563;28;20820;-71
2021/08/28 05:02:54;;;;;;;3.47;2.13;;;;;;;14.14;100.00;101006.81;5073394;28;20442;-72
2021/08/28 05:05:21;;;;;;;3.03;1.13;;;;;;;14.10;100.00;101005.81;5073443;28;20437;-71
2021/08/28 05:07:47;;;;;;;2.10;1.60;;;;;;;14.06;100.00;101011.09;5073773;28;20463;-72
2021/08/28 05:10:15;;;;;;;1.70;1.37;;;;;;;14.06;100.00;101004.84;5073666;28;20444;-70
2021/08/28 05:12:41;;;;;;;2.77;1.43;;;;;;;14.08;100.00;101005.34;5073261;28;20550;-71
2021/08/28 05:15:09;;;;;;;3.17;2.40;;;;;;;14.11;100.00;101002.78;5073151;28;20445;-72
2021/08/28 05:17:35;;;;;;;2.50;2.20;;;;;;;14.12;100.00;101015.31;5073054;28;20931;-72
2021/08/28 05:20:01;;;;;;;2.70;1.40;;;;;;;14.16;100.00;101012.72;5073514;28;20432;-72
2021/08/28 05:22:28;;;;;;;4.77;2.20;;;;;;;14.22;100.00;101016.94;5073265;28;20452;-72
2021/08/28 05:24:54;;;;;;;5.90;2.33;;;;;;;14.28;100.00;101006.69;5072895;28;20433;-72
2021/08/28 05:27:22;;;;;;;2.30;1.90;;;;;;;14.31;100.00;101016.97;5073068;28;20974;-72
2021/08/28 05:29:49;;;;;;;2.20;1.70;;;;;;;14.31;100.00;101017.78;5073297;28;20445;-73
2021/08/28 05:32:15;;;;;;;1.77;1.47;;;;;;;14.27;100.00;101011.34;5072876;28;20484;-72
2021/08/28 05:34:42;;;;;;;2.07;1.53;;;;;;;14.25;100.00;101015.50;5072609;28;20441;-71
2021/08/28 05:37:08;;;;;;;2.10;1.20;;;;;;;14.26;100.00;101026.09;5073388;28;20457;-73
2021/08/28 05:39:34;;;;;;;3.90;2.27;;;;;;;14.23;100.00;101021.25;5073360;28;20445;-72
2021/08/28 05:42:01;;;;;;;2.20;1.10;;;;;;;14.25;100.00;101021.72;5073274;28;20446;-72
2021/08/28 05:44:29;;;;;;;2.30;1.47;;;;;;;14.27;100.00;101024.16;5072458;28;20444;-71
2021/08/28 05:46:56;;;;;;;2.60;1.60;;;;;;;14.27;100.00;101022.25;5072820;28;20487;-72
2021/08/28 05:49:22;;;;;;;1.97;1.63;;;;;;;14.33;100.00;101020.16;5072953;28;20931;-72
2021/08/28 05:51:49;;;;;;;3.80;2.23;;;;;;;14.35;100.00;101023.41;5073112;28;20502;-72
2021/08/28 05:54:15;;;;;;;2.97;1.90;;;;;;;14.37;100.00;101023.88;5072358;28;20523;-72
2021/08/28 05:56:42;;;;;;;2.40;1.07;;;;;;;14.39;100.00;101022.44;5072773;28;20940;-72
2021/08/28 05:59:08;;;;;;;1.87;1.43;;;;;;;14.45;100.00;101016.84;5073143;28;20452;-73
2021/08/28 06:01:36;;;;;;;2.53;1.87;;;;;;;14.49;100.00;101020.59;5073142;28;20464;-72
2021/08/28 06:04:02;;;;;;;2.70;1.77;;;;;;;14.50;100.00;101024.91;5072201;28;20444;-72
2021/08/28 06:06:29;;;;;;;2.00;1.73;;;;;;;14.56;100.00;101018.19;5072962;28;20444;-71
2021/08/28 06:08:55;;;;;;;1.97;1.50;;;;;;;14.57;100.00;101020.59;5073017;28;20445;-72
2021/08/28 06:11:23;;;;;;;3.67;2.33;;;;;;;14.56;100.00;101010.78;5072930;28;20449;-71
2021/08/28 06:13:50;;;;;;;3.10;1.50;;;;;;;14.58;100.00;101016.75;5071716;28;20451;-68
2021/08/28 06:16:16;;;;;;;2.77;1.87;;;;;;;14.64;100.00;101014.66;5072293;28;20457;-68
2021/08/28 06:18:44;;;;;;;2.40;1.67;;;;;;;14.70;100.00;101018.03;5072508;28;20990;-68
2021/08/28 06:21:10;;;;;;;3.53;1.40;;;;;;;14.78;100.00;101017.25;5072969;28;20448;-68
2021/08/28 06:23:37;;;;;;;2.27;1.60;;;;;;;14.85;100.00;101021.13;5071722;28;20452;-69
2021/08/28 06:26:03;;;;;;;2.07;1.60;;;;;;;14.87;100.00;101020.81;5072433;28;20847;-70
2021/08/28 06:28:30;;;;;;;1.77;1.37;;;;;;;14.94;100.00;101023.06;5072455;28;20970;-71
2021/08/28 06:30:57;;;;;;;4.23;1.40;;;;;;;14.99;100.00;101026.44;5072890;28;20437;-69
2021/08/28 06:33:23;;;;;;;2.33;1.57;;;;;;;15.04;100.00;101030.94;5071823;28;20477;-70
2021/08/28 06:35:51;;;;;;;2.60;1.60;;;;;;;15.06;100.00;101021.31;5072662;28;20445;-70
2021/08/28 06:38:17;;;;;;;1.67;0.93;;;;;;;15.04;100.00;101017.28;5072434;28;20449;-70
2021/08/28 06:40:44;;;;;;;2.10;1.67;;;;;;;15.11;100.00;101023.09;5072652;28;20437;-71
2021/08/28 06:43:10;;;;;;;2.90;1.70;;;;;;;15.18;100.00;101025.31;5074813;28;20441;-71
2021/08/28 06:45:37;;;;;;;3.90;2.13;;;;;;;15.21;100.00;101024.69;5076312;28;20444;-70
2021/08/28 06:48:04;;;;;;;3.07;2.37;;;;;;;15.24;100.00;101022.13;5076338;28;20473;-70
2021/08/28 06:50:30;;;;;;;2.70;2.17;;;;;;;15.22;100.00;101024.34;5076388;28;20519;-70
2021/08/28 06:52:58;;;;;;;2.40;1.67;;;;;;;15.31;100.00;101027.09;5075406;28;20559;-71
2021/08/28 06:55:25;;;;;;;2.67;2.03;;;;;;;15.38;100.00;101028.22;5075958;28;20441;-71
2021/08/28 06:57:51;;;;;;;5.17;2.37;;;;;;;15.45;100.00;101018.72;5075882;28;20989;-70
2021/08/28 07:00:18;;;;;;;4.33;1.80;;;;;;;15.46;100.00;101025.81;5076202;28;20445;-70
2021/08/28 07:02:44;;;;;;;4.33;2.93;;;;;;;15.52;100.00;101035.44;5075818;28;20441;-68
2021/08/28 07:05:11;;;;;;;4.47;2.77;;;;;;;15.53;100.00;101026.91;5075650;28;20449;-70
2021/08/28 07:07:38;;;;;;;3.30;1.60;;;;;;;15.54;100.00;101025.00;5075771;28;20970;-69
2021/08/28 07:10:07;;;;;;;3.80;2.67;;;;;;;15.56;100.00;101033.66;5076352;28;20452;-71
2021/08/28 07:12:33;;;;;;;1.83;1.33;;;;;;;15.58;100.00;101024.03;5075665;28;20481;-72
2021/08/28 07:14:59;;;;;;;3.40;2.00;;;;;;;15.61;100.00;101034.28;5075307;28;20444;-69
2021/08/28 07:17:26;;;;;;;4.53;1.90;;;;;;;15.70;100.00;101036.22;5075847;28;20460;-70
2021/08/28 07:19:52;;;;;;;3.60;1.60;;;;;;;15.79;100.00;101039.75;5076029;28;20449;-70
2021/08/28 07:22:19;;;;;;;6.83;2.73;;;;;;;15.82;100.00;101037.16;5075693;28;20451;-70
2021/08/28 07:24:45;;;;;;;1.57;1.47;;;;;;;15.88;100.00;101033.13;5074961;28;20436;-71
2021/08/28 07:27:13;;;;;;;2.20;1.30;;;;;;;15.95;100.00;101029.09;5075655;28;20488;-69
2021/08/28 07:29:39;;;;;;;3.40;2.00;;;;;;;15.97;100.00;101032.31;5075690;28;20445;-70
2021/08/28 07:32:06;;;;;;;3.80;1.37;;;;;;;15.87;100.00;101031.53;5075607;28;20501;-69
2021/08/28 07:34:36;;;;;;;4.73;2.23;;;;;;;15.86;100.00;101023.66;5074728;28;20483;-72
2021/08/28 07:37:03;;;;;;;2.20;1.43;;;;;;;15.86;100.00;101016.28;5075441;28;20477;-70
2021/08/28 07:39:29;;;;;;;2.17;1.67;;;;;;;15.86;100.00;101023.66;5075095;28;20869;-71
2021/08/28 07:41:56;;;;;;;2.50;2.17;;;;;;;15.89;99.90;101021.09;5075463;28;20440;-71
2021/08/28 07:44:23;;;;;;;3.03;1.90;;;;;;;16.05;99.46;101023.28;5074461;28;20450;-71
2021/08/28 07:46:50;;;;;;;2.07;1.40;;;;;;;16.18;99.53;101027.72;5075322;28;20461;-72
2021/08/28 07:49:17;;;;;;;2.30;1.50;;;;;;;16.30;99.73;101025.13;5075545;28;20433;-71
2021/08/28 07:51:43;;;;;;;2.83;1.77;;;;;;;16.45;98.87;101028.41;5074395;28;20438;-73
2021/08/28 07:54:10;;;;;;;2.07;1.83;;;;;;;16.63;98.39;101032.66;5073246;28;21120;-73
2021/08/28 07:56:36;;;;;;;4.20;1.63;;;;;;;16.77;97.32;101029.69;5074386;28;20441;-72
2021/08/28 07:59:03;;;;;;;2.03;1.80;;;;;;;16.82;95.79;101037.72;5075248;28;20449;-73
2021/08/28 08:01:31;;;;;;;5.30;1.73;;;;;;;16.78;95.19;101039.53;5075199;28;20449;-72
2021/08/28 08:03:57;;;;;;;1.53;1.07;;;;;;;16.81;95.45;101044.31;5074121;28;20441;-72
2021/08/28 08:06:24;;;;;;;2.67;1.80;;;;;;;16.77;95.47;101044.19;5075018;28;20445;-74
2021/08/28 08:08:50;;;;;;;1.90;1.23;;;;;;;16.84;95.72;101043.66;5074970;28;20449;-70
2021/08/28 08:11:17;;;;;;;4.00;1.97;;;;;;;16.85;95.93;101054.28;5074544;28;20957;-67
2021/08/28 08:13:43;;;;;;;2.33;1.80;;;;;;;16.85;96.39;101048.00;5073989;28;20524;-71
2021/08/28 08:16:10;;;;;;;3.00;1.70;;;;;;;16.85;95.47;101051.53;5074857;28;20442;-72
2021/08/28 08:18:38;;;;;;;2.33;1.67;;;;;;;16.90;94.78;101059.53;5074813;28;20484;-72
2021/08/28 08:21:05;;;;;;;1.50;1.13;;;;;;;16.96;94.44;101059.38;5074460;28;20943;-72
2021/08/28 08:23:31;;;;;;;2.80;1.70;;;;;;;17.04;94.47;101058.50;5073527;28;21040;-71
2021/08/28 08:25:58;;;;;;;0.90;0.80;;;;;;;17.13;94.12;101062.78;5074655;28;20441;-73
2021/08/28 08:28:25;;;;;;;2.07;1.40;;;;;;;17.24;93.80;101065.91;5074604;28;20869;-73
2021/08/28 08:30:51;;;;;;;8.50;1.80;;;;;;;17.26;91.80;101063.63;5074127;28;20445;-73
2021/08/28 08:33:17;;;;;;;2.00;1.13;;;;;;;17.32;89.80;101065.06;5073677;28;20484;-74
2021/08/28 08:35:45;;;;;;;1.40;1.20;;;;;;;17.42;88.02;101063.03;5074621;28;20430;-72
2021/08/28 08:38:12;;;;;;;2.60;1.40;;;;;;;17.35;88.76;101064.38;5074329;28;20461;-72
2021/08/28 08:40:38;;;;;;;3.30;1.50;;;;;;;17.40;89.69;101066.91;5074039;28;20953;-72
2021/08/28 08:43:07;;;;;;;3.00;2.00;;;;;;;17.38;89.80;101069.19;5073653;28;20433;-73
2021/08/28 08:45:34;;;;;;;2.60;2.40;;;;;;;17.35;91.24;101064.38;5074133;28;20452;-72
2021/08/28 08:48:02;;;;;;;3.97;1.63;;;;;;;17.37;91.90;101070.31;5074392;28;20457;-73
2021/08/28 08:50:29;;;;;;;3.67;1.87;;;;;;;17.31;90.01;101068.09;5073961;28;20462;-73
2021/08/28 08:53:03;;;;;;;2.83;1.70;;;;;;;17.26;90.35;101060.91;5073558;28;20488;-73
2021/08/28 08:55:29;;;;;;;1.90;1.80;;;;;;;17.32;91.28;101058.78;5073942;28;20432;-73
2021/08/28 08:57:57;;;;;;;2.10;1.60;;;;;;;17.43;90.72;101064.63;5073722;28;20465;-73
2021/08/28 09:00:23;;;;;;;2.07;1.50;;;;;;;17.37;89.18;101064.84;5074053;28;21043;-72
2021/08/28 09:02:50;;;;;;;2.40;1.27;;;;;;;17.46;90.10;101063.97;5074012;28;20442;-73
2021/08/28 09:05:17;;;;;;;3.87;2.23;;;;;;;17.52;90.04;101068.09;5073958;28;20437;-73
2021/08/28 09:07:43;;;;;;;2.33;1.50;;;;;;;17.37;88.94;101064.03;5073078;28;20466;-73
2021/08/28 09:10:12;;;;;;;3.30;1.90;;;;;;;17.45;89.03;101063.19;5073819;28;20452;-73
2021/08/28 09:12:40;;;;;;;2.40;1.60;;;;;;;17.59;89.81;101079.31;5073608;28;20853;-73
2021/08/28 09:15:08;;;;;;;2.93;1.30;;;;;;;17.68;89.16;101066.34;5072809;28;20449;-73
2021/08/28 09:17:36;;;;;;;3.10;1.80;;;;;;;17.87;88.71;101079.56;5073757;28;20837;-72
2021/08/28 09:20:16;;;;;;;5.77;1.93;;;;;;;18.00;88.17;101081.19;5073330;28;20441;-73
2021/08/28 09:22:43;;;;;;;1.73;1.43;;;;;;;18.00;87.40;101083.94;5073556;28;20453;-73
2021/08/28 09:25:12;;;;;;;2.13;1.50;;;;;;;17.79;86.86;101083.19;5072884;28;20421;-73
2021/08/28 09:27:40;;;;;;;1.90;1.30;;;;;;;17.87;87.04;101083.09;5073490;28;20552;-73
2021/08/28 09:30:22;;;;;;;3.00;1.57;;;;;;;17.95;87.62;101080.63;5073558;28;20437;-73
2021/08/28 09:32:51;;;;;;;1.70;1.43;;;;;;;17.98;88.10;101083.50;5073038;28;20538;-73
2021/08/28 09:35:22;;;;;;;2.30;1.40;;;;;;;17.84;86.89;101075.56;5073218;28;20422;-73
2021/08/28 09:37:53;;;;;;;2.90;1.17;;;;;;;17.94;86.75;101079.81;5073365;28;20476;-72
2021/08/28 09:40:24;;;;;;;2.47;1.63;;;;;;;17.88;86.98;101078.41;5073195;28;20981;-73
2021/08/28 09:42:55;;;;;;;2.77;1.60;;;;;;;17.85;86.62;101081.84;5072890;28;20434;-74
2021/08/28 09:45:24;;;;;;;1.40;1.27;;;;;;;17.90;86.94;101085.16;5073060;28;20440;-74
2021/08/28 09:47:52;;;;;;;1.40;1.07;;;;;;;18.06;86.40;101081.78;5073223;28;20467;-73
2021/08/28 09:50:24;;;;;;;2.40;1.50;;;;;;;18.09;84.84;101083.84;5073236;28;20441;-73
2021/08/28 09:52:51;;;;;;;1.93;1.67;;;;;;;18.17;85.57;101091.19;5072743;28;20469;-74
2021/08/28 09:55:21;;;;;;;2.63;1.87;;;;;;;18.08;85.48;101085.00;5072815;28;20441;-72
2021/08/28 09:57:51;;;;;;;1.20;1.10;;;;;;;18.17;85.37;101071.97;5073108;28;20468;-74
2021/08/28 10:00:19;;;;;;;2.80;1.40;;;;;;;18.24;85.78;101077.72;5073119;28;20422;-72
2021/08/28 10:02:58;;;;;;;2.73;1.87;;;;;;;18.37;85.34;101076.59;5073022;28;20441;-74
2021/08/28 10:05:27;;;;;;;1.60;1.50;;;;;;;18.43;84.62;101079.91;5072635;28;20413;-72
2021/08/28 10:07:56;;;;;;;2.30;1.80;;;;;;;18.57;83.73;101085.03;5072963;28;20492;-73
2021/08/28 10:10:23;;;;;;;3.47;1.40;;;;;;;18.76;83.94;101082.53;5071722;28;20506;-72
2021/08/28 10:12:51;;;;;;;1.10;1.00;;;;;;;18.92;82.74;101079.13;5072574;28;20437;-74
2021/08/28 10:15:20;;;;;;;1.60;1.50;;;;;;;18.99;82.56;101082.06;5072578;28;20449;-72
2021/08/28 10:20:20;;;;;;;1.60;0.90;;;;;;;18.97;80.73;101079.66;5084430;22;20489;-77
2021/08/28 10:22:50;;;;;;;1.40;1.30;;;;;;;19.17;80.41;101088.91;5077140;28;20444;-76
2021/08/28 10:25:20;;;;;;;1.43;1.20;;;;;;;19.38;82.03;101078.53;5085132;22;20492;-77
2021/08/28 10:27:48;;;;;;;2.53;1.27;;;;;;;19.53;82.20;101076.22;5076803;28;20453;-77
2021/08/28 10:30:18;;;;;;;1.80;1.13;;;;;;;19.64;79.24;101071.81;5077061;28;20820;-77
2021/08/28 10:32:45;;;;;;;1.37;1.27;;;;;;;19.84;77.40;101079.06;5076857;28;20441;-77
2021/08/28 10:35:14;;;;;;;1.80;1.00;;;;;;;20.09;77.14;101076.16;5076452;28;20465;-77
2021/08/28 10:37:40;;;;;;;1.80;1.50;;;;;;;20.18;76.63;101076.78;5077433;28;20429;-77
2021/08/28 10:40:10;;;;;;;1.93;1.27;;;;;;;20.10;73.49;101070.34;5076981;28;20445;-77
2021/08/28 10:42:39;;;;;;;3.23;1.00;;;;;;;20.12;74.25;101072.72;5076988;28;20964;-78
2021/08/28 10:45:07;;;;;;;1.60;1.50;;;;;;;20.14;73.71;101071.22;5076120;28;20457;-77
2021/08/28 10:47:35;;;;;;;1.17;1.07;;;;;;;20.24;75.28;101072.63;5076922;28;20828;-77
2021/08/28 10:50:04;;;;;;;1.37;1.07;;;;;;;20.30;75.77;101062.16;5076682;28;20437;-77
2021/08/28 10:52:35;;;;;;;2.63;1.50;;;;;;;20.29;75.48;101071.56;5076737;28;20452;-78
2021/08/28 10:55:06;;;;;;;1.10;0.97;;;;;;;20.21;71.82;101062.34;5075845;28;20484;-78
2021/08/28 10:57:34;;;;;;;1.63;1.20;;;;;;;20.22;75.01;101058.44;5079526;28;20593;-77
2021/08/28 11:00:04;;;;;;;1.87;1.30;;;;;;;20.41;75.60;101068.75;5087951;28;20453;-77
2021/08/28 11:02:55;;;;;;;1.73;1.10;;;;;;;20.76;75.90;101060.56;5084817;28;20818;-77
2021/08/28 11:05:23;;;;;;;1.50;1.37;;;;;;;21.06;72.70;101068.28;5060460;28;20469;-78
2021/08/28 11:07:50;;;;;;;1.60;1.10;;;;;;;21.22;71.73;101076.50;5056820;28;20452;-78
2021/08/28 11:10:19;;;;;;;1.70;1.40;;;;;;;21.16;72.14;101068.53;5056839;28;20446;-78
2021/08/28 11:12:59;;;;;;;2.63;1.43;;;;;;;21.14;71.12;101067.28;5056029;28;20446;-78
2021/08/28 11:15:50;;;;;;;1.43;1.33;;;;;;;21.40;72.40;101072.97;5055663;28;20488;-78
2021/08/28 11:18:44;;;;;;;2.60;1.57;;;;;;;22.20;71.84;101076.09;5057414;28;20415;-78
2021/08/28 11:21:11;;;;;;;1.90;1.30;;;;;;;22.52;63.71;101078.56;5057464;28;20817;-78
2021/08/28 11:23:40;;;;;;;3.10;1.43;;;;;;;23.11;62.15;101075.16;5056777;28;20435;-78
2021/08/28 11:26:07;;;;;;;1.67;1.23;;;;;;;23.74;61.23;101076.31;5056080;28;20489;-78